sensor_id;sensor_type;location;lat;lon;timestamp;temperature;humidity
4081;DHT22;2055;50.074;8.436;2023-09-19T00:02:01;16.50;99.90
4081;DHT22;2055;50.074;8.436;2023-09-19T00:04:27;16.10;99.90
4081;DHT22;2055;50.074;8.436;2023-09-19T00:06:54;16.10;99.90
4081;DHT22;2055;50.074;8.436;2023-09-19T00:09:20;16.20;99.90
4081;DHT22;2055;50.074;8.436;2023-09-19T00:11:45;16.20;99.90
4081;DHT22;2055;50.074;8.436;2023-09-19T00:14:13;16.20;99.90
4081;DHT22;2055;50.074;8.436;2023-09-19T00:16:39;16.20;99.90
4081;DHT22;2055;50.074;8.436;2023-09-19T00:19:06;16.20;99.90
4081;DHT22;2055;50.074;8.436;2023-09-19T00:21:32;16.30;99.90
4081;DHT22;2055;50.074;8.436;2023-09-19T00:23:58;16.60;99.90
4081;DHT22;2055;50.074;8.436;2023-09-19T00:26:23;16.20;99.90
4081;DHT22;2055;50.074;8.436;2023-09-19T00:28:52;16.20;99.90
4081;DHT22;2055;50.074;8.436;2023-09-19T00:31:18;16.30;99.90
4081;DHT22;2055;50.074;8.436;2023-09-19T00:33:44;16.30;99.90
4081;DHT22;2055;50.074;8.436;2023-09-19T00:36:09;16.40;99.90
4081;DHT22;2055;50.074;8.436;2023-09-19T00:38:35;16.30;99.90
4081;DHT22;2055;50.074;8.436;2023-09-19T00:41:01;16.10;99.90
4081;DHT22;2055;50.074;8.436;2023-09-19T00:43:26;16.20;99.90
4081;DHT22;2055;50.074;8.436;2023-09-19T00:45:54;16.30;99.90
4081;DHT22;2055;50.074;8.436;2023-09-19T00:48:21;16.50;99.90
4081;DHT22;2055;50.074;8.436;2023-09-19T00:50:49;16.30;99.90
4081;DHT22;2055;50.074;8.436;2023-09-19T00:53:20;16.30;99.90
4081;DHT22;2055;50.074;8.436;2023-09-19T00:55:48;16.30;99.90
4081;DHT22;2055;50.074;8.436;2023-09-19T00:58:17;16.50;99.90
4081;DHT22;2055;50.074;8.436;2023-09-19T01:00:43;16.30;99.90
4081;DHT22;2055;50.074;8.436;2023-09-19T01:03:10;16.40;99.90
4081;DHT22;2055;50.074;8.436;2023-09-19T01:05:36;16.30;99.90
4081;DHT22;2055;50.074;8.436;2023-09-19T01:08:02;16.30;99.90
4081;DHT22;2055;50.074;8.436;2023-09-19T01:10:27;16.30;99.90
4081;DHT22;2055;50.074;8.436;2023-09-19T01:16:36;16.30;99.90
4081;DHT22;2055;50.074;8.436;2023-09-19T01:19:07;16.20;99.90
4081;DHT22;2055;50.074;8.436;2023-09-19T01:22:08;16.30;99.90
4081;DHT22;2055;50.074;8.436;2023-09-19T01:30:14;16.30;99.90
4081;DHT22;2055;50.074;8.436;2023-09-19T01:32:42;16.90;99.90
4081;DHT22;2055;50.074;8.436;2023-09-19T01:35:08;16.30;99.90
4081;DHT22;2055;50.074;8.436;2023-09-19T01:37:38;16.20;99.90
4081;DHT22;2055;50.074;8.436;2023-09-19T01:40:08;16.20;99.90
4081;DHT22;2055;50.074;8.436;2023-09-19T01:47:54;16.10;99.90
4081;DHT22;2055;50.074;8.436;2023-09-19T01:50:30;16.10;99.90
4081;DHT22;2055;50.074;8.436;2023-09-19T01:53:05;16.00;99.90
4081;DHT22;2055;50.074;8.436;2023-09-19T01:55:39;16.20;99.90
4081;DHT22;2055;50.074;8.436;2023-09-19T01:58:34;16.20;99.90
4081;DHT22;2055;50.074;8.436;2023-09-19T02:00:58;15.90;99.90
4081;DHT22;2055;50.074;8.436;2023-09-19T02:03:26;15.90;99.90
4081;DHT22;2055;50.074;8.436;2023-09-19T02:05:53;15.80;99.90
4081;DHT22;2055;50.074;8.436;2023-09-19T02:08:19;15.80;99.90
4081;DHT22;2055;50.074;8.436;2023-09-19T02:10:45;15.80;99.90
4081;DHT22;2055;50.074;8.436;2023-09-19T02:13:18;15.70;99.90
4081;DHT22;2055;50.074;8.436;2023-09-19T02:15:45;15.70;99.90
4081;DHT22;2055;50.074;8.436;2023-09-19T02:18:12;15.60;99.90
4081;DHT22;2055;50.074;8.436;2023-09-19T02:20:38;15.60;99.90
4081;DHT22;2055;50.074;8.436;2023-09-19T02:23:04;15.60;99.90
4081;DHT22;2055;50.074;8.436;2023-09-19T02:25:30;15.60;99.90
4081;DHT22;2055;50.074;8.436;2023-09-19T02:27:56;15.50;99.90
4081;DHT22;2055;50.074;8.436;2023-09-19T02:30:24;15.50;99.90
4081;DHT22;2055;50.074;8.436;2023-09-19T02:32:51;15.40;99.90
4081;DHT22;2055;50.074;8.436;2023-09-19T02:35:17;16.90;99.90
4081;DHT22;2055;50.074;8.436;2023-09-19T02:37:45;15.40;99.90
4081;DHT22;2055;50.074;8.436;2023-09-19T02:40:11;15.40;99.90
4081;DHT22;2055;50.074;8.436;2023-09-19T02:42:53;15.30;99.90
4081;DHT22;2055;50.074;8.436;2023-09-19T02:45:20;15.30;99.90
4081;DHT22;2055;50.074;8.436;2023-09-19T02:47:48;15.30;99.90
4081;DHT22;2055;50.074;8.436;2023-09-19T02:50:14;15.30;99.90
4081;DHT22;2055;50.074;8.436;2023-09-19T02:52:43;15.20;99.90
4081;DHT22;2055;50.074;8.436;2023-09-19T02:55:11;15.20;99.90
4081;DHT22;2055;50.074;8.436;2023-09-19T02:57:38;15.10;99.90
4081;DHT22;2055;50.074;8.436;2023-09-19T03:00:07;15.10;99.90
4081;DHT22;2055;50.074;8.436;2023-09-19T03:02:34;15.10;99.90
4081;DHT22;2055;50.074;8.436;2023-09-19T03:05:01;15.00;99.90
4081;DHT22;2055;50.074;8.436;2023-09-19T03:07:28;14.90;99.90
4081;DHT22;2055;50.074;8.436;2023-09-19T03:09:53;14.80;99.90
4081;DHT22;2055;50.074;8.436;2023-09-19T03:12:20;14.70;99.90
4081;DHT22;2055;50.074;8.436;2023-09-19T03:14:46;14.70;99.90
4081;DHT22;2055;50.074;8.436;2023-09-19T03:17:11;14.60;99.90
4081;DHT22;2055;50.074;8.436;2023-09-19T03:19:39;14.70;99.90
4081;DHT22;2055;50.074;8.436;2023-09-19T03:22:06;14.70;99.90
4081;DHT22;2055;50.074;8.436;2023-09-19T03:24:33;14.80;99.90
4081;DHT22;2055;50.074;8.436;2023-09-19T03:26:58;14.80;99.90
4081;DHT22;2055;50.074;8.436;2023-09-19T03:29:24;14.70;99.90
4081;DHT22;2055;50.074;8.436;2023-09-19T03:31:50;14.70;99.90
4081;DHT22;2055;50.074;8.436;2023-09-19T03:34:16;14.70;99.90
4081;DHT22;2055;50.074;8.436;2023-09-19T03:36:42;14.70;99.90
4081;DHT22;2055;50.074;8.436;2023-09-19T03:39:08;14.70;99.90
4081;DHT22;2055;50.074;8.436;2023-09-19T03:41:33;14.60;99.90
4081;DHT22;2055;50.074;8.436;2023-09-19T03:44:01;14.60;99.90
4081;DHT22;2055;50.074;8.436;2023-09-19T03:46:28;14.90;99.90
4081;DHT22;2055;50.074;8.436;2023-09-19T03:48:53;14.60;99.90
4081;DHT22;2055;50.074;8.436;2023-09-19T03:51:20;14.70;99.90
4081;DHT22;2055;50.074;8.436;2023-09-19T03:53:45;14.70;99.90
4081;DHT22;2055;50.074;8.436;2023-09-19T03:56:11;14.70;99.90
4081;DHT22;2055;50.074;8.436;2023-09-19T03:58:37;14.70;99.90
4081;DHT22;2055;50.074;8.436;2023-09-19T04:01:05;14.70;99.90
4081;DHT22;2055;50.074;8.436;2023-09-19T04:03:33;14.70;99.90
4081;DHT22;2055;50.074;8.436;2023-09-19T04:06:15;14.60;99.90
4081;DHT22;2055;50.074;8.436;2023-09-19T04:08:41;16.90;99.90
4081;DHT22;2055;50.074;8.436;2023-09-19T04:11:06;14.70;99.90
4081;DHT22;2055;50.074;8.436;2023-09-19T04:13:32;14.70;99.90
4081;DHT22;2055;50.074;8.436;2023-09-19T04:15:58;14.70;99.90
4081;DHT22;2055;50.074;8.436;2023-09-19T04:18:23;14.80;99.90
4081;DHT22;2055;50.074;8.436;2023-09-19T04:20:49;14.70;99.90
4081;DHT22;2055;50.074;8.436;2023-09-19T04:23:15;14.90;99.90
4081;DHT22;2055;50.074;8.436;2023-09-19T04:25:41;14.60;99.90
4081;DHT22;2055;50.074;8.436;2023-09-19T04:28:06;14.70;99.90
4081;DHT22;2055;50.074;8.436;2023-09-19T04:30:32;14.70;99.90
4081;DHT22;2055;50.074;8.436;2023-09-19T04:32:58;14.70;99.90
4081;DHT22;2055;50.074;8.436;2023-09-19T04:35:24;14.70;99.90
4081;DHT22;2055;50.074;8.436;2023-09-19T04:37:52;14.70;99.90
4081;DHT22;2055;50.074;8.436;2023-09-19T04:40:18;14.70;99.90
4081;DHT22;2055;50.074;8.436;2023-09-19T04:42:44;14.70;99.90
4081;DHT22;2055;50.074;8.436;2023-09-19T04:45:11;14.70;99.90
4081;DHT22;2055;50.074;8.436;2023-09-19T04:47:37;14.70;99.90
4081;DHT22;2055;50.074;8.436;2023-09-19T04:50:08;14.60;99.90
4081;DHT22;2055;50.074;8.436;2023-09-19T04:52:40;14.60;99.90
4081;DHT22;2055;50.074;8.436;2023-09-19T04:55:09;14.60;99.90
4081;DHT22;2055;50.074;8.436;2023-09-19T04:57:34;14.60;99.90
4081;DHT22;2055;50.074;8.436;2023-09-19T05:00:02;14.60;99.90
4081;DHT22;2055;50.074;8.436;2023-09-19T05:02:32;14.60;99.90
4081;DHT22;2055;50.074;8.436;2023-09-19T05:04:57;14.50;99.90
4081;DHT22;2055;50.074;8.436;2023-09-19T05:07:24;14.60;99.90
4081;DHT22;2055;50.074;8.436;2023-09-19T05:09:51;14.50;99.90
4081;DHT22;2055;50.074;8.436;2023-09-19T05:12:16;14.50;99.90
4081;DHT22;2055;50.074;8.436;2023-09-19T05:14:43;14.40;99.90
4081;DHT22;2055;50.074;8.436;2023-09-19T05:17:09;14.50;99.90
4081;DHT22;2055;50.074;8.436;2023-09-19T05:19:35;14.50;99.90
4081;DHT22;2055;50.074;8.436;2023-09-19T05:22:02;14.50;99.90
4081;DHT22;2055;50.074;8.436;2023-09-19T05:24:29;14.40;99.90
4081;DHT22;2055;50.074;8.436;2023-09-19T05:26:56;15.00;99.90
4081;DHT22;2055;50.074;8.436;2023-09-19T05:29:22;14.40;99.90
4081;DHT22;2055;50.074;8.436;2023-09-19T05:31:48;14.40;99.90
4081;DHT22;2055;50.074;8.436;2023-09-19T05:34:15;14.40;99.90
4081;DHT22;2055;50.074;8.436;2023-09-19T05:36:40;14.40;99.90
4081;DHT22;2055;50.074;8.436;2023-09-19T05:39:06;14.40;99.90
4081;DHT22;2055;50.074;8.436;2023-09-19T05:41:35;14.40;99.90
4081;DHT22;2055;50.074;8.436;2023-09-19T05:44:03;14.40;99.90
4081;DHT22;2055;50.074;8.436;2023-09-19T05:46:31;14.40;99.90
4081;DHT22;2055;50.074;8.436;2023-09-19T05:48:56;14.40;99.90
4081;DHT22;2055;50.074;8.436;2023-09-19T05:51:22;14.40;99.90
4081;DHT22;2055;50.074;8.436;2023-09-19T05:53:48;14.40;99.90
4081;DHT22;2055;50.074;8.436;2023-09-19T05:56:14;14.40;99.90
4081;DHT22;2055;50.074;8.436;2023-09-19T05:58:40;14.50;99.90
4081;DHT22;2055;50.074;8.436;2023-09-19T06:01:09;14.50;99.90
4081;DHT22;2055;50.074;8.436;2023-09-19T06:03:35;14.60;99.90
4081;DHT22;2055;50.074;8.436;2023-09-19T06:06:01;14.70;99.90
4081;DHT22;2055;50.074;8.436;2023-09-19T06:08:27;14.70;99.90
4081;DHT22;2055;50.074;8.436;2023-09-19T06:10:54;14.70;99.90
4081;DHT22;2055;50.074;8.436;2023-09-19T06:13:19;14.80;99.90
4081;DHT22;2055;50.074;8.436;2023-09-19T06:15:45;14.80;99.90
4081;DHT22;2055;50.074;8.436;2023-09-19T06:18:12;15.10;99.90
4081;DHT22;2055;50.074;8.436;2023-09-19T06:20:42;14.90;99.90
4081;DHT22;2055;50.074;8.436;2023-09-19T06:23:09;14.90;99.90
4081;DHT22;2055;50.074;8.436;2023-09-19T06:25:35;14.90;99.90
4081;DHT22;2055;50.074;8.436;2023-09-19T06:28:01;15.00;99.90
4081;DHT22;2055;50.074;8.436;2023-09-19T06:30:30;15.10;99.90
4081;DHT22;2055;50.074;8.436;2023-09-19T06:32:56;15.20;99.90
4081;DHT22;2055;50.074;8.436;2023-09-19T06:35:22;15.10;99.90
4081;DHT22;2055;50.074;8.436;2023-09-19T06:37:48;15.20;99.90
4081;DHT22;2055;50.074;8.436;2023-09-19T06:40:14;15.30;99.90
4081;DHT22;2055;50.074;8.436;2023-09-19T06:42:45;15.30;99.90
4081;DHT22;2055;50.074;8.436;2023-09-19T06:45:11;15.30;99.90
4081;DHT22;2055;50.074;8.436;2023-09-19T06:47:39;15.40;99.90
4081;DHT22;2055;50.074;8.436;2023-09-19T06:50:05;15.70;99.90
4081;DHT22;2055;50.074;8.436;2023-09-19T06:52:32;15.40;99.90
4081;DHT22;2055;50.074;8.436;2023-09-19T06:54:58;15.50;99.90
4081;DHT22;2055;50.074;8.436;2023-09-19T06:57:24;15.50;99.90
4081;DHT22;2055;50.074;8.436;2023-09-19T06:59:50;16.20;99.90
4081;DHT22;2055;50.074;8.436;2023-09-19T07:02:15;15.60;99.90
4081;DHT22;2055;50.074;8.436;2023-09-19T07:04:41;15.70;99.90
4081;DHT22;2055;50.074;8.436;2023-09-19T07:07:06;15.80;99.90
4081;DHT22;2055;50.074;8.436;2023-09-19T07:09:34;16.00;99.90
4081;DHT22;2055;50.074;8.436;2023-09-19T07:12:00;16.00;99.90
4081;DHT22;2055;50.074;8.436;2023-09-19T07:14:26;16.00;99.90
4081;DHT22;2055;50.074;8.436;2023-09-19T07:16:52;16.10;99.90
4081;DHT22;2055;50.074;8.436;2023-09-19T07:19:17;16.20;99.90
4081;DHT22;2055;50.074;8.436;2023-09-19T07:21:43;16.10;99.90
4081;DHT22;2055;50.074;8.436;2023-09-19T07:24:09;16.10;99.90
4081;DHT22;2055;50.074;8.436;2023-09-19T07:26:34;16.10;99.90
4081;DHT22;2055;50.074;8.436;2023-09-19T07:29:00;16.00;99.90
4081;DHT22;2055;50.074;8.436;2023-09-19T07:31:29;16.20;99.90
4081;DHT22;2055;50.074;8.436;2023-09-19T07:33:55;16.20;99.90
4081;DHT22;2055;50.074;8.436;2023-09-19T07:36:20;16.20;99.90
4081;DHT22;2055;50.074;8.436;2023-09-19T07:38:46;16.20;99.90
4081;DHT22;2055;50.074;8.436;2023-09-19T07:41:13;17.80;99.90
4081;DHT22;2055;50.074;8.436;2023-09-19T07:43:38;16.50;99.90
4081;DHT22;2055;50.074;8.436;2023-09-19T07:46:08;16.50;99.90
4081;DHT22;2055;50.074;8.436;2023-09-19T07:48:37;16.60;99.90
4081;DHT22;2055;50.074;8.436;2023-09-19T07:51:07;16.60;99.90
4081;DHT22;2055;50.074;8.436;2023-09-19T07:53:34;16.60;99.90
4081;DHT22;2055;50.074;8.436;2023-09-19T07:56:08;16.50;99.90
4081;DHT22;2055;50.074;8.436;2023-09-19T07:58:34;16.50;99.90
4081;DHT22;2055;50.074;8.436;2023-09-19T08:01:08;16.60;99.90
4081;DHT22;2055;50.074;8.436;2023-09-19T08:03:34;16.70;99.90
4081;DHT22;2055;50.074;8.436;2023-09-19T08:06:03;16.60;99.90
4081;DHT22;2055;50.074;8.436;2023-09-19T08:08:28;16.40;99.90
4081;DHT22;2055;50.074;8.436;2023-09-19T08:10:55;16.70;99.90
4081;DHT22;2055;50.074;8.436;2023-09-19T08:13:25;16.80;99.90
4081;DHT22;2055;50.074;8.436;2023-09-19T08:15:51;16.70;99.90
4081;DHT22;2055;50.074;8.436;2023-09-19T08:18:18;16.70;99.90
4081;DHT22;2055;50.074;8.436;2023-09-19T08:20:52;16.80;99.90
4081;DHT22;2055;50.074;8.436;2023-09-19T08:23:18;17.00;99.90
4081;DHT22;2055;50.074;8.436;2023-09-19T08:25:45;17.30;99.90
4081;DHT22;2055;50.074;8.436;2023-09-19T08:28:11;17.10;99.90
4081;DHT22;2055;50.074;8.436;2023-09-19T08:30:37;17.10;99.90
4081;DHT22;2055;50.074;8.436;2023-09-19T08:33:06;17.20;99.90
4081;DHT22;2055;50.074;8.436;2023-09-19T08:35:32;17.30;99.90
4081;DHT22;2055;50.074;8.436;2023-09-19T08:37:57;17.50;99.90
4081;DHT22;2055;50.074;8.436;2023-09-19T08:40:23;17.60;99.90
4081;DHT22;2055;50.074;8.436;2023-09-19T08:42:50;17.60;99.90
4081;DHT22;2055;50.074;8.436;2023-09-19T08:45:16;17.60;99.90
4081;DHT22;2055;50.074;8.436;2023-09-19T08:50:39;17.50;99.90
4081;DHT22;2055;50.074;8.436;2023-09-19T08:53:11;17.20;99.90
4081;DHT22;2055;50.074;8.436;2023-09-19T08:55:40;17.30;99.90
4081;DHT22;2055;50.074;8.436;2023-09-19T08:58:10;17.50;99.90
4081;DHT22;2055;50.074;8.436;2023-09-19T09:00:36;17.60;99.90
4081;DHT22;2055;50.074;8.436;2023-09-19T09:03:03;17.70;99.90
4081;DHT22;2055;50.074;8.436;2023-09-19T09:05:30;17.70;99.90
4081;DHT22;2055;50.074;8.436;2023-09-19T09:07:58;17.80;99.90
4081;DHT22;2055;50.074;8.436;2023-09-19T09:10:25;18.00;99.90
4081;DHT22;2055;50.074;8.436;2023-09-19T09:12:52;18.10;99.90
4081;DHT22;2055;50.074;8.436;2023-09-19T09:15:22;18.00;99.90
4081;DHT22;2055;50.074;8.436;2023-09-19T09:17:49;18.00;99.90
4081;DHT22;2055;50.074;8.436;2023-09-19T09:20:19;18.00;99.90
4081;DHT22;2055;50.074;8.436;2023-09-19T09:22:55;17.90;99.90
4081;DHT22;2055;50.074;8.436;2023-09-19T09:25:22;17.80;99.90
4081;DHT22;2055;50.074;8.436;2023-09-19T09:28:01;17.90;99.90
4081;DHT22;2055;50.074;8.436;2023-09-19T09:30:34;18.10;99.90
4081;DHT22;2055;50.074;8.436;2023-09-19T09:33:10;18.00;99.90
4081;DHT22;2055;50.074;8.436;2023-09-19T09:35:37;18.10;99.90
4081;DHT22;2055;50.074;8.436;2023-09-19T09:38:12;18.20;99.90
4081;DHT22;2055;50.074;8.436;2023-09-19T09:40:50;18.00;99.90
4081;DHT22;2055;50.074;8.436;2023-09-19T09:43:53;17.90;99.90
4081;DHT22;2055;50.074;8.436;2023-09-19T09:46:20;18.20;99.90
4081;DHT22;2055;50.074;8.436;2023-09-19T09:48:47;18.00;99.90
4081;DHT22;2055;50.074;8.436;2023-09-19T09:51:33;18.20;99.90
4081;DHT22;2055;50.074;8.436;2023-09-19T09:54:18;18.30;99.90
4081;DHT22;2055;50.074;8.436;2023-09-19T09:57:00;18.20;99.90
4081;DHT22;2055;50.074;8.436;2023-09-19T09:59:50;18.70;99.90
4081;DHT22;2055;50.074;8.436;2023-09-19T10:02:18;19.50;99.90
4081;DHT22;2055;50.074;8.436;2023-09-19T10:04:49;19.60;99.90
4081;DHT22;2055;50.074;8.436;2023-09-19T10:07:28;19.80;99.90
4081;DHT22;2055;50.074;8.436;2023-09-19T10:09:59;19.80;99.90
4081;DHT22;2055;50.074;8.436;2023-09-19T10:12:32;19.60;99.90
4081;DHT22;2055;50.074;8.436;2023-09-19T10:15:00;19.60;99.90
4081;DHT22;2055;50.074;8.436;2023-09-19T10:17:29;19.60;99.90
4081;DHT22;2055;50.074;8.436;2023-09-19T10:19:57;19.30;99.90
4081;DHT22;2055;50.074;8.436;2023-09-19T10:22:26;19.40;99.90
4081;DHT22;2055;50.074;8.436;2023-09-19T10:24:53;19.90;99.90
4081;DHT22;2055;50.074;8.436;2023-09-19T10:27:20;19.70;99.90
4081;DHT22;2055;50.074;8.436;2023-09-19T10:29:48;19.70;99.90
4081;DHT22;2055;50.074;8.436;2023-09-19T10:32:16;19.80;99.90
4081;DHT22;2055;50.074;8.436;2023-09-19T10:34:46;20.10;99.90
4081;DHT22;2055;50.074;8.436;2023-09-19T10:37:13;20.70;99.90
4081;DHT22;2055;50.074;8.436;2023-09-19T10:39:41;20.60;99.90
4081;DHT22;2055;50.074;8.436;2023-09-19T10:42:11;20.00;99.90
4081;DHT22;2055;50.074;8.436;2023-09-19T10:44:42;20.40;99.90
4081;DHT22;2055;50.074;8.436;2023-09-19T10:47:10;20.80;99.90
4081;DHT22;2055;50.074;8.436;2023-09-19T10:49:44;21.00;99.90
4081;DHT22;2055;50.074;8.436;2023-09-19T10:52:14;21.20;99.90
4081;DHT22;2055;50.074;8.436;2023-09-19T10:54:48;21.40;99.90
4081;DHT22;2055;50.074;8.436;2023-09-19T10:57:24;21.30;99.90
4081;DHT22;2055;50.074;8.436;2023-09-19T11:00:08;21.20;99.90
4081;DHT22;2055;50.074;8.436;2023-09-19T11:05:37;20.00;99.90
4081;DHT22;2055;50.074;8.436;2023-09-19T11:08:07;19.50;99.90
4081;DHT22;2055;50.074;8.436;2023-09-19T11:10:59;19.60;99.90
4081;DHT22;2055;50.074;8.436;2023-09-19T11:13:28;20.50;99.90
4081;DHT22;2055;50.074;8.436;2023-09-19T11:26:45;21.50;99.90
4081;DHT22;2055;50.074;8.436;2023-09-19T11:29:32;21.50;99.90
4081;DHT22;2055;50.074;8.436;2023-09-19T11:31:58;21.90;99.90
4081;DHT22;2055;50.074;8.436;2023-09-19T11:37:04;22.30;99.90
4081;DHT22;2055;50.074;8.436;2023-09-19T11:40:07;22.70;99.90
4081;DHT22;2055;50.074;8.436;2023-09-19T11:42:53;22.20;99.90
4081;DHT22;2055;50.074;8.436;2023-09-19T11:48:18;21.70;99.90
4081;DHT22;2055;50.074;8.436;2023-09-19T11:50:45;21.70;99.90
4081;DHT22;2055;50.074;8.436;2023-09-19T11:53:12;21.60;99.90
4081;DHT22;2055;50.074;8.436;2023-09-19T11:55:39;22.10;99.90
4081;DHT22;2055;50.074;8.436;2023-09-19T11:58:07;22.10;99.90
4081;DHT22;2055;50.074;8.436;2023-09-19T12:00:34;21.90;99.90
4081;DHT22;2055;50.074;8.436;2023-09-19T12:03:07;22.50;99.90
4081;DHT22;2055;50.074;8.436;2023-09-19T12:05:34;22.10;99.90
4081;DHT22;2055;50.074;8.436;2023-09-19T12:08:00;22.10;99.90
4081;DHT22;2055;50.074;8.436;2023-09-19T12:10:27;21.70;99.90
4081;DHT22;2055;50.074;8.436;2023-09-19T12:12:53;21.50;99.90
4081;DHT22;2055;50.074;8.436;2023-09-19T12:15:25;22.00;99.90
4081;DHT22;2055;50.074;8.436;2023-09-19T12:18:00;22.20;99.90
4081;DHT22;2055;50.074;8.436;2023-09-19T12:20:41;23.10;99.90
4081;DHT22;2055;50.074;8.436;2023-09-19T12:23:13;23.20;99.90
4081;DHT22;2055;50.074;8.436;2023-09-19T12:25:43;23.30;99.90
4081;DHT22;2055;50.074;8.436;2023-09-19T12:28:12;23.40;99.90
4081;DHT22;2055;50.074;8.436;2023-09-19T12:30:37;23.80;99.90
4081;DHT22;2055;50.074;8.436;2023-09-19T12:33:04;23.70;99.90
4081;DHT22;2055;50.074;8.436;2023-09-19T12:35:31;22.80;99.90
4081;DHT22;2055;50.074;8.436;2023-09-19T12:38:00;22.80;99.90
4081;DHT22;2055;50.074;8.436;2023-09-19T12:40:26;22.70;99.90
4081;DHT22;2055;50.074;8.436;2023-09-19T12:42:57;23.20;99.90
4081;DHT22;2055;50.074;8.436;2023-09-19T12:45:28;23.20;99.90
4081;DHT22;2055;50.074;8.436;2023-09-19T12:48:18;22.80;99.90
4081;DHT22;2055;50.074;8.436;2023-09-19T12:51:08;22.00;99.90
4081;DHT22;2055;50.074;8.436;2023-09-19T12:53:45;22.50;99.90
4081;DHT22;2055;50.074;8.436;2023-09-19T12:56:16;22.60;99.90
4081;DHT22;2055;50.074;8.436;2023-09-19T13:01:26;23.20;99.90
4081;DHT22;2055;50.074;8.436;2023-09-19T13:06:50;23.50;99.90
4081;DHT22;2055;50.074;8.436;2023-09-19T13:09:16;23.80;99.90
4081;DHT22;2055;50.074;8.436;2023-09-19T13:11:43;24.40;99.90
4081;DHT22;2055;50.074;8.436;2023-09-19T13:14:26;24.30;99.90
4081;DHT22;2055;50.074;8.436;2023-09-19T13:17:07;23.40;99.90
4081;DHT22;2055;50.074;8.436;2023-09-19T13:19:46;23.30;99.90
4081;DHT22;2055;50.074;8.436;2023-09-19T13:22:40;22.70;99.90
4081;DHT22;2055;50.074;8.436;2023-09-19T13:25:13;22.90;99.90
4081;DHT22;2055;50.074;8.436;2023-09-19T13:27:45;23.60;99.90
4081;DHT22;2055;50.074;8.436;2023-09-19T13:30:12;24.00;99.90
4081;DHT22;2055;50.074;8.436;2023-09-19T13:32:38;23.80;99.90
4081;DHT22;2055;50.074;8.436;2023-09-19T13:35:06;24.30;99.90
4081;DHT22;2055;50.074;8.436;2023-09-19T13:37:34;23.20;99.90
4081;DHT22;2055;50.074;8.436;2023-09-19T13:40:05;22.20;99.90
4081;DHT22;2055;50.074;8.436;2023-09-19T13:42:31;21.50;99.90
4081;DHT22;2055;50.074;8.436;2023-09-19T13:44:57;21.60;99.90
4081;DHT22;2055;50.074;8.436;2023-09-19T13:47:23;22.00;99.90
4081;DHT22;2055;50.074;8.436;2023-09-19T13:49:51;22.10;99.90
4081;DHT22;2055;50.074;8.436;2023-09-19T13:52:19;21.90;99.90
4081;DHT22;2055;50.074;8.436;2023-09-19T13:54:44;22.10;99.90
4081;DHT22;2055;50.074;8.436;2023-09-19T13:57:10;22.80;99.90
4081;DHT22;2055;50.074;8.436;2023-09-19T13:59:35;23.10;99.90
4081;DHT22;2055;50.074;8.436;2023-09-19T14:02:01;22.90;99.90
4081;DHT22;2055;50.074;8.436;2023-09-19T14:04:31;22.70;99.90
4081;DHT22;2055;50.074;8.436;2023-09-19T14:06:57;22.50;99.90
4081;DHT22;2055;50.074;8.436;2023-09-19T14:09:23;22.60;99.90
4081;DHT22;2055;50.074;8.436;2023-09-19T14:11:50;22.20;99.90
4081;DHT22;2055;50.074;8.436;2023-09-19T14:14:20;21.40;99.90
4081;DHT22;2055;50.074;8.436;2023-09-19T14:16:47;21.90;99.90
4081;DHT22;2055;50.074;8.436;2023-09-19T14:19:13;21.80;99.90
4081;DHT22;2055;50.074;8.436;2023-09-19T14:21:40;21.80;99.90
4081;DHT22;2055;50.074;8.436;2023-09-19T14:24:06;21.70;99.90
4081;DHT22;2055;50.074;8.436;2023-09-19T14:26:38;21.60;99.90
4081;DHT22;2055;50.074;8.436;2023-09-19T14:29:04;21.20;99.90
4081;DHT22;2055;50.074;8.436;2023-09-19T14:31:29;21.00;99.90
4081;DHT22;2055;50.074;8.436;2023-09-19T14:33:55;21.30;99.90
4081;DHT22;2055;50.074;8.436;2023-09-19T14:36:22;21.80;99.90
4081;DHT22;2055;50.074;8.436;2023-09-19T14:38:52;21.80;99.90
4081;DHT22;2055;50.074;8.436;2023-09-19T14:41:23;22.40;99.90
4081;DHT22;2055;50.074;8.436;2023-09-19T14:43:51;22.70;99.90
4081;DHT22;2055;50.074;8.436;2023-09-19T14:46:16;22.10;99.90
4081;DHT22;2055;50.074;8.436;2023-09-19T14:48:44;21.70;99.90
4081;DHT22;2055;50.074;8.436;2023-09-19T14:51:13;22.10;99.90
4081;DHT22;2055;50.074;8.436;2023-09-19T14:53:39;23.10;99.90
4081;DHT22;2055;50.074;8.436;2023-09-19T14:56:07;23.90;99.90
4081;DHT22;2055;50.074;8.436;2023-09-19T14:58:33;24.20;99.90
4081;DHT22;2055;50.074;8.436;2023-09-19T15:01:06;23.50;99.90
4081;DHT22;2055;50.074;8.436;2023-09-19T15:03:33;23.20;99.90
4081;DHT22;2055;50.074;8.436;2023-09-19T15:06:01;24.10;99.90
4081;DHT22;2055;50.074;8.436;2023-09-19T15:08:30;24.50;99.90
4081;DHT22;2055;50.074;8.436;2023-09-19T15:10:56;24.10;99.90
4081;DHT22;2055;50.074;8.436;2023-09-19T15:13:24;23.60;99.90
4081;DHT22;2055;50.074;8.436;2023-09-19T15:15:58;22.70;99.90
4081;DHT22;2055;50.074;8.436;2023-09-19T15:18:24;22.60;99.90
4081;DHT22;2055;50.074;8.436;2023-09-19T15:20:50;22.00;99.90
4081;DHT22;2055;50.074;8.436;2023-09-19T15:23:16;22.40;99.90
4081;DHT22;2055;50.074;8.436;2023-09-19T15:25:48;23.00;99.90
4081;DHT22;2055;50.074;8.436;2023-09-19T15:28:14;23.40;99.90
4081;DHT22;2055;50.074;8.436;2023-09-19T15:30:40;24.10;99.90
4081;DHT22;2055;50.074;8.436;2023-09-19T15:33:05;23.70;99.90
4081;DHT22;2055;50.074;8.436;2023-09-19T15:35:31;23.50;99.90
4081;DHT22;2055;50.074;8.436;2023-09-19T15:37:56;24.30;99.90
4081;DHT22;2055;50.074;8.436;2023-09-19T15:40:24;24.80;99.90
4081;DHT22;2055;50.074;8.436;2023-09-19T15:42:50;23.80;99.90
4081;DHT22;2055;50.074;8.436;2023-09-19T15:45:15;23.30;99.90
4081;DHT22;2055;50.074;8.436;2023-09-19T15:47:44;22.90;99.90
4081;DHT22;2055;50.074;8.436;2023-09-19T15:50:10;22.20;99.90
4081;DHT22;2055;50.074;8.436;2023-09-19T15:52:38;21.80;99.90
4081;DHT22;2055;50.074;8.436;2023-09-19T15:55:05;23.30;99.90
4081;DHT22;2055;50.074;8.436;2023-09-19T15:57:37;21.40;99.90
4081;DHT22;2055;50.074;8.436;2023-09-19T16:00:04;21.40;99.90
4081;DHT22;2055;50.074;8.436;2023-09-19T16:02:35;21.30;99.90
4081;DHT22;2055;50.074;8.436;2023-09-19T16:05:01;21.30;99.90
4081;DHT22;2055;50.074;8.436;2023-09-19T16:07:32;21.20;99.90
4081;DHT22;2055;50.074;8.436;2023-09-19T16:09:58;21.20;99.90
4081;DHT22;2055;50.074;8.436;2023-09-19T16:12:25;21.20;99.90
4081;DHT22;2055;50.074;8.436;2023-09-19T16:14:51;21.40;99.90
4081;DHT22;2055;50.074;8.436;2023-09-19T16:17:17;21.40;99.90
4081;DHT22;2055;50.074;8.436;2023-09-19T16:19:43;21.10;99.90
4081;DHT22;2055;50.074;8.436;2023-09-19T16:22:09;20.90;99.90
4081;DHT22;2055;50.074;8.436;2023-09-19T16:24:35;20.70;99.90
4081;DHT22;2055;50.074;8.436;2023-09-19T16:27:00;20.50;99.90
4081;DHT22;2055;50.074;8.436;2023-09-19T16:29:26;20.40;99.90
4081;DHT22;2055;50.074;8.436;2023-09-19T16:31:52;20.40;99.90
4081;DHT22;2055;50.074;8.436;2023-09-19T16:34:18;20.30;99.90
4081;DHT22;2055;50.074;8.436;2023-09-19T16:36:43;20.20;99.90
4081;DHT22;2055;50.074;8.436;2023-09-19T16:39:09;20.10;99.90
4081;DHT22;2055;50.074;8.436;2023-09-19T16:41:36;20.00;99.90
4081;DHT22;2055;50.074;8.436;2023-09-19T16:44:02;19.90;99.90
4081;DHT22;2055;50.074;8.436;2023-09-19T16:46:29;19.80;99.90
4081;DHT22;2055;50.074;8.436;2023-09-19T16:48:55;19.60;99.90
4081;DHT22;2055;50.074;8.436;2023-09-19T16:51:20;19.50;99.90
4081;DHT22;2055;50.074;8.436;2023-09-19T16:53:46;19.50;99.90